createdAt,value
2018-11-11T00:00:18.547Z,22.2
2018-11-11T00:01:09.614Z,22.1
2018-11-11T00:01:59.979Z,22.1
2018-11-11T00:02:49.253Z,22.1
2018-11-11T00:03:39.567Z,22.1
2018-11-11T00:04:29.130Z,22.1
2018-11-11T00:05:18.927Z,22.2
2018-11-11T00:06:09.201Z,22.1
2018-11-11T00:07:00.049Z,22.2
2018-11-11T00:25:07.551Z,22.1
2018-11-11T00:25:58.718Z,22.1
2018-11-11T00:26:48.208Z,22.1
2018-11-11T00:27:39.155Z,22.1
2018-11-11T00:28:30.135Z,22.2
2018-11-11T00:29:19.565Z,22.1
2018-11-11T00:30:08.175Z,22.1
2018-11-11T00:30:58.582Z,22.2
2018-11-11T00:31:48.361Z,22.2
2018-11-11T00:32:38.313Z,22.2
2018-11-11T00:33:29.230Z,22.1
2018-11-11T00:34:18.530Z,22.1
2018-11-11T00:35:09.124Z,22.1
2018-11-11T00:35:59.117Z,22.1
2018-11-11T00:36:48.674Z,22.1
2018-11-11T00:37:39.872Z,22.1
2018-11-11T00:38:29.037Z,22.1
2018-11-11T00:39:19.722Z,22.1
2018-11-11T00:40:08.524Z,22.1
2018-11-11T00:40:59.297Z,22.1
2018-11-11T00:41:50.137Z,22.1
2018-11-11T00:42:39.462Z,22.1
2018-11-11T00:43:29.415Z,22.1
2018-11-11T00:44:18.739Z,22.1
2018-11-11T00:45:09.239Z,22.2
2018-11-11T00:45:59.366Z,22.1
2018-11-11T00:46:49.157Z,22.2
2018-11-11T00:47:39.593Z,22.1
2018-11-11T00:48:29.481Z,22.1
2018-11-11T00:49:19.021Z,22.2
2018-11-11T00:50:09.660Z,22.1
2018-11-11T00:51:01.274Z,22.1
2018-11-11T00:51:50.537Z,22.1
2018-11-11T00:52:39.821Z,22.1
2018-11-11T00:53:30.114Z,22.2
2018-11-11T00:54:20.162Z,22.2
2018-11-11T00:55:09.809Z,22.2
2018-11-11T00:56:00.806Z,22.1
2018-11-11T00:56:51.191Z,22.2
2018-11-11T00:57:40.158Z,22.2
2018-11-11T00:58:31.298Z,22.1
2018-11-11T00:59:21.358Z,22.2
2018-11-11T01:00:10.840Z,22.2
2018-11-11T01:01:00.664Z,22.2
2018-11-11T01:01:50.688Z,22.2
2018-11-11T01:02:41.046Z,22.2
2018-11-11T01:03:31.199Z,22.1
2018-11-11T01:04:21.262Z,22.2
2018-11-11T01:05:11.350Z,22.2
2018-11-11T01:06:01.075Z,22.2
2018-11-11T01:06:50.947Z,22.2
2018-11-11T01:07:40.811Z,22.2
2018-11-11T01:08:31.755Z,22.2
2018-11-11T01:09:21.787Z,22.2
2018-11-11T01:10:11.895Z,22.2
2018-11-11T01:11:01.685Z,22.2
2018-11-11T01:11:51.411Z,22.2
2018-11-11T01:12:41.596Z,22.2
2018-11-11T01:13:31.325Z,22.2
2018-11-11T01:14:21.382Z,22.2
2018-11-11T01:15:11.375Z,22.1
2018-11-11T01:16:02.370Z,22.2
2018-11-11T01:16:52.118Z,22.2
2018-11-11T01:17:42.102Z,22.2
2018-11-11T01:18:32.210Z,22.2
2018-11-11T01:19:22.814Z,22.2
2018-11-11T01:20:12.627Z,22.2
2018-11-11T01:21:02.597Z,22.2
2018-11-11T01:21:52.799Z,22.1
2018-11-11T01:22:42.295Z,22.2
2018-11-11T01:23:31.742Z,22.2
2018-11-11T01:24:22.152Z,22.2
2018-11-11T01:25:12.466Z,22.2
2018-11-11T01:26:02.766Z,22.2
2018-11-11T01:26:53.322Z,22.1
2018-11-11T01:27:42.399Z,22.2
2018-11-11T01:28:32.422Z,22.2
2018-11-11T01:29:22.120Z,22.2
2018-11-11T01:30:12.347Z,22.2
2018-11-11T01:31:02.702Z,22.1
2018-11-11T01:31:51.952Z,22.2
2018-11-11T01:32:43.336Z,22.2
2018-11-11T01:33:32.593Z,22.2
2018-11-11T01:34:22.574Z,22.2
2018-11-11T01:35:12.137Z,22.2
2018-11-11T01:36:03.779Z,22.2
2018-11-11T01:36:53.059Z,22.2
2018-11-11T01:37:43.643Z,22.2
2018-11-11T01:38:33.191Z,22.2
2018-11-11T01:39:22.731Z,22.2
2018-11-11T01:40:13.596Z,22.2
2018-11-11T01:41:03.344Z,22.2
2018-11-11T01:41:53.577Z,22.2
2018-11-11T01:42:44.126Z,22.2
2018-11-11T01:43:32.816Z,22.2
2018-11-11T01:44:23.638Z,22.2
2018-11-11T01:45:13.048Z,22.2
2018-11-11T01:46:03.420Z,22.2
2018-11-11T01:46:53.747Z,22.2
2018-11-11T01:47:43.026Z,22.2
2018-11-11T01:48:33.551Z,22.2
2018-11-11T01:49:23.947Z,22.2
2018-11-11T01:50:14.073Z,22.2
2018-11-11T01:51:04.137Z,22.2
2018-11-11T01:51:54.478Z,22.2
2018-11-11T01:52:43.880Z,22.2
2018-11-11T01:53:33.933Z,22.2
2018-11-11T01:54:23.706Z,22.2
2018-11-11T01:55:14.655Z,22.2
2018-11-11T01:56:03.062Z,22.2
2018-11-11T01:56:54.071Z,22.2
2018-11-11T01:57:44.216Z,22.2
2018-11-11T01:58:34.083Z,22.2
2018-11-11T01:59:24.193Z,22.2
2018-11-11T02:00:13.135Z,22.1
2018-11-11T02:01:05.202Z,22.2
2018-11-11T02:01:53.923Z,22.2
2018-11-11T02:02:45.399Z,22.2
2018-11-11T02:03:34.466Z,22.2
2018-11-11T02:04:25.544Z,22.2
2018-11-11T02:05:14.596Z,22.2
2018-11-11T02:06:05.144Z,22.2
2018-11-11T02:06:55.207Z,22.2
2018-11-11T02:07:44.704Z,22.2
2018-11-11T02:08:35.922Z,22.2
2018-11-11T02:09:25.338Z,22.2
2018-11-11T02:10:14.865Z,22.2
2018-11-11T02:11:04.612Z,22.2
2018-11-11T02:11:55.639Z,22.2
2018-11-11T02:12:46.446Z,22.2
2018-11-11T02:13:35.737Z,22.2
2018-11-11T02:14:25.807Z,22.2
2018-11-11T02:15:15.494Z,22.2
2018-11-11T02:16:06.143Z,22.2
2018-11-11T02:16:55.606Z,22.2
2018-11-11T02:17:46.222Z,22.2
2018-11-11T02:18:36.077Z,22.2
2018-11-11T02:19:25.608Z,22.2
2018-11-11T02:20:16.453Z,22.2
2018-11-11T02:21:05.643Z,22.2
2018-11-11T02:21:56.826Z,22.2
2018-11-11T02:22:46.536Z,22.2
2018-11-11T02:23:37.733Z,22.2
2018-11-11T02:24:26.449Z,22.2
2018-11-11T02:25:16.229Z,22.2
2018-11-11T02:26:07.083Z,22.2
2018-11-11T02:26:57.691Z,22.2
2018-11-11T02:27:47.171Z,22.2
2018-11-11T02:28:36.273Z,22.2
2018-11-11T02:29:25.932Z,22.2
2018-11-11T02:30:16.680Z,22.2
2018-11-11T02:31:06.845Z,22.2
2018-11-11T02:31:57.351Z,22.2
2018-11-11T02:32:46.608Z,22.2
2018-11-11T02:33:36.654Z,22.2
2018-11-11T02:34:27.163Z,22.2
2018-11-11T02:35:17.318Z,22.2
2018-11-11T02:36:07.410Z,22.2
2018-11-11T02:36:57.031Z,22.2
2018-11-11T02:37:48.946Z,22.2
2018-11-11T02:38:36.436Z,22.2
2018-11-11T02:39:28.040Z,22.2
2018-11-11T02:40:17.565Z,22.2
2018-11-11T02:41:07.613Z,22.2
2018-11-11T02:41:57.720Z,22.3
2018-11-11T02:42:46.945Z,22.2
2018-11-11T02:43:38.653Z,22.2
2018-11-11T02:44:28.448Z,22.2
2018-11-11T02:45:18.275Z,22.2
2018-11-11T02:46:07.505Z,22.3
2018-11-11T02:46:57.867Z,22.2
2018-11-11T02:47:48.027Z,22.2
2018-11-11T02:48:38.527Z,22.2
2018-11-11T02:49:27.962Z,22.2
2018-11-11T02:50:17.577Z,22.2
2018-11-11T02:51:08.521Z,22.2
2018-11-11T02:51:58.176Z,22.3
2018-11-11T02:52:47.727Z,22.3
2018-11-11T02:53:37.924Z,22.3
2018-11-11T02:54:27.852Z,22.3
2018-11-11T02:55:18.779Z,22.3
2018-11-11T02:56:08.804Z,22.2
2018-11-11T02:56:58.564Z,22.2
2018-11-11T02:57:48.007Z,22.3
2018-11-11T02:58:38.658Z,22.2
2018-11-11T02:59:28.077Z,22.3
2018-11-11T03:00:19.099Z,22.2
2018-11-11T03:01:09.613Z,22.2
2018-11-11T03:01:58.446Z,22.2
2018-11-11T03:02:49.092Z,22.2
2018-11-11T03:03:39.803Z,22.2
2018-11-11T03:04:30.080Z,22.2
2018-11-11T03:05:19.769Z,22.3
2018-11-11T03:06:09.777Z,22.2
2018-11-11T03:06:59.710Z,22.3
2018-11-11T03:07:50.169Z,22.2
2018-11-11T03:08:38.908Z,22.2
2018-11-11T03:09:31.053Z,22.3
2018-11-11T03:10:20.589Z,22.2
2018-11-11T03:11:10.505Z,22.2
2018-11-11T03:12:00.972Z,22.2
2018-11-11T03:12:50.524Z,22.3
2018-11-11T03:13:40.576Z,22.2
2018-11-11T03:14:30.777Z,22.3
2018-11-11T03:15:20.983Z,22.3
2018-11-11T03:16:09.216Z,22.3
2018-11-11T03:17:01.069Z,22.3
2018-11-11T03:17:50.582Z,22.2
2018-11-11T03:18:40.536Z,22.3
2018-11-11T03:19:30.846Z,22.3
2018-11-11T03:20:21.478Z,22.3
2018-11-11T03:21:10.781Z,22.3
2018-11-11T03:22:00.885Z,22.3
2018-11-11T03:22:50.423Z,22.2
2018-11-11T03:23:41.269Z,22.3
2018-11-11T03:24:31.608Z,22.3
2018-11-11T03:25:20.927Z,22.3
2018-11-11T03:26:10.883Z,22.3
2018-11-11T03:27:01.472Z,22.3
2018-11-11T03:27:51.297Z,22.3
2018-11-11T03:28:41.362Z,22.3
2018-11-11T03:29:31.726Z,22.3
2018-11-11T03:30:21.507Z,22.3
2018-11-11T03:31:11.407Z,22.3
2018-11-11T03:32:02.235Z,22.3
2018-11-11T03:32:52.446Z,22.3
2018-11-11T03:33:41.270Z,22.3
2018-11-11T03:34:32.609Z,22.3
2018-11-11T03:35:20.697Z,22.3
2018-11-11T03:36:11.591Z,22.3
2018-11-11T03:37:02.639Z,22.3
2018-11-11T03:37:52.569Z,22.3
2018-11-11T03:38:40.806Z,22.3
2018-11-11T03:39:31.919Z,22.3
2018-11-11T03:40:21.166Z,22.3
2018-11-11T03:41:11.672Z,22.3
2018-11-11T03:42:01.659Z,22.3
2018-11-11T03:42:52.348Z,22.3
2018-11-11T03:43:42.422Z,22.2
2018-11-11T03:44:31.719Z,22.3
2018-11-11T03:45:22.560Z,22.3
2018-11-11T03:46:12.321Z,22.3
2018-11-11T03:47:02.959Z,22.3
2018-11-11T03:47:53.309Z,22.3
2018-11-11T03:48:42.537Z,22.3
2018-11-11T03:49:32.771Z,22.3
2018-11-11T03:50:23.047Z,22.3
2018-11-11T03:51:12.923Z,22.3
2018-11-11T03:52:03.524Z,22.3
2018-11-11T03:52:53.621Z,22.3
2018-11-11T03:53:42.288Z,22.3
2018-11-11T03:54:33.686Z,22.3
2018-11-11T03:55:24.033Z,22.3
2018-11-11T03:56:13.316Z,22.3
2018-11-11T03:57:04.164Z,22.3
2018-11-11T03:57:54.202Z,22.3
2018-11-11T03:58:44.432Z,22.3
2018-11-11T03:59:33.018Z,22.3
2018-11-11T04:00:24.065Z,22.3
2018-11-11T04:01:13.371Z,22.3
2018-11-11T04:02:03.168Z,22.3
2018-11-11T04:02:54.097Z,22.3
2018-11-11T04:03:44.105Z,22.3
2018-11-11T04:04:33.033Z,22.3
2018-11-11T04:05:23.183Z,22.3
2018-11-11T04:06:14.755Z,22.3
2018-11-11T04:07:04.482Z,22.3
2018-11-11T04:07:54.938Z,22.3
2018-11-11T04:08:43.721Z,22.3
2018-11-11T04:09:34.556Z,22.3
2018-11-11T04:10:25.303Z,22.3
2018-11-11T04:11:14.647Z,22.3
2018-11-11T04:12:04.168Z,22.3
2018-11-11T04:12:54.987Z,22.3
2018-11-11T04:13:45.084Z,22.3
2018-11-11T04:14:33.986Z,22.3
2018-11-11T04:15:25.164Z,22.3
2018-11-11T04:16:14.404Z,22.3
2018-11-11T04:17:05.706Z,22.3
2018-11-11T04:17:55.639Z,22.3
2018-11-11T04:18:45.499Z,22.3
2018-11-11T04:19:35.698Z,22.3
2018-11-11T04:20:25.901Z,22.3
2018-11-11T04:21:15.016Z,22.3
2018-11-11T04:22:05.666Z,22.3
2018-11-11T04:22:55.531Z,22.3
2018-11-11T04:23:45.799Z,22.3
2018-11-11T04:24:35.068Z,22.3
2018-11-11T04:25:25.794Z,22.3
2018-11-11T04:26:15.473Z,22.3
2018-11-11T04:27:06.261Z,22.3
2018-11-11T04:27:56.144Z,22.3
2018-11-11T04:28:46.263Z,22.3
2018-11-11T04:29:35.614Z,22.3
2018-11-11T04:30:25.820Z,22.3
2018-11-11T04:31:16.347Z,22.3
2018-11-11T04:32:06.674Z,22.3
2018-11-11T04:32:56.153Z,22.3
2018-11-11T04:33:46.230Z,22.3
2018-11-11T04:34:36.589Z,22.3
2018-11-11T04:35:27.176Z,22.3
2018-11-11T04:36:16.721Z,22.3
2018-11-11T04:54:19.807Z,22.3
2018-11-11T04:55:09.788Z,22.3
2018-11-11T04:56:00.058Z,22.3
2018-11-11T04:56:50.115Z,22.3
2018-11-11T04:57:40.210Z,22.3
2018-11-11T04:58:30.257Z,22.3
2018-11-11T04:59:19.951Z,22.3
2018-11-11T05:00:10.398Z,22.3
2018-11-11T05:00:59.633Z,22.3
2018-11-11T05:01:50.508Z,22.3
2018-11-11T05:02:39.651Z,22.3
2018-11-11T05:03:29.593Z,22.3
2018-11-11T05:04:20.704Z,22.3
2018-11-11T05:05:10.860Z,22.3
2018-11-11T05:05:59.885Z,22.3
2018-11-11T05:06:51.075Z,22.3
2018-11-11T05:07:40.882Z,22.3
2018-11-11T05:08:30.575Z,22.3
2018-11-11T05:09:20.698Z,22.3
2018-11-11T05:10:10.693Z,22.3
2018-11-11T05:11:00.280Z,22.3
2018-11-11T05:11:50.316Z,22.3
2018-11-11T05:12:40.463Z,22.3
2018-11-11T05:13:29.836Z,22.3
2018-11-11T05:14:20.016Z,22.3
2018-11-11T05:15:10.432Z,22.3
2018-11-11T05:16:00.697Z,22.3
2018-11-11T05:16:50.974Z,22.3
2018-11-11T05:17:41.079Z,22.3
2018-11-11T05:18:30.959Z,22.3
2018-11-11T05:19:21.167Z,22.3
2018-11-11T05:20:11.332Z,22.3
2018-11-11T05:21:01.512Z,22.3
2018-11-11T05:21:51.902Z,22.3
2018-11-11T05:22:41.682Z,22.3
2018-11-11T05:23:31.335Z,22.3
2018-11-11T05:24:21.511Z,22.3
2018-11-11T05:25:11.029Z,22.3
2018-11-11T05:26:01.894Z,22.3
2018-11-11T05:26:52.000Z,22.3
2018-11-11T05:27:41.722Z,22.3
2018-11-11T05:28:31.491Z,22.3
2018-11-11T05:29:21.650Z,22.3
2018-11-11T05:30:11.891Z,22.3
2018-11-11T05:31:02.357Z,22.3
2018-11-11T05:31:52.153Z,22.3
2018-11-11T05:32:41.821Z,22.3
2018-11-11T05:33:31.665Z,22.3
2018-11-11T05:34:22.507Z,22.3
2018-11-11T05:35:11.798Z,22.3
2018-11-11T05:36:02.421Z,22.3
2018-11-11T05:36:52.405Z,22.2
2018-11-11T05:37:42.156Z,22.3
2018-11-11T05:38:31.941Z,22.2
2018-11-11T05:39:21.022Z,22.2
2018-11-11T05:40:12.058Z,22.2
2018-11-11T05:41:02.603Z,22.2
2018-11-11T05:41:52.566Z,22.2
2018-11-11T05:42:42.817Z,22.2
2018-11-11T05:43:32.872Z,22.2
2018-11-11T05:44:22.921Z,22.2
2018-11-11T05:45:13.276Z,22.2
2018-11-11T05:46:03.078Z,22.2
2018-11-11T05:46:52.345Z,22.2
2018-11-11T05:47:43.178Z,22.2
2018-11-11T05:48:32.638Z,22.2
2018-11-11T05:49:22.543Z,22.2
2018-11-11T05:50:12.678Z,22.2
2018-11-11T05:51:04.225Z,22.1
2018-11-11T05:51:53.073Z,22.1
2018-11-11T05:52:44.403Z,22.1
2018-11-11T05:53:33.650Z,22.1
2018-11-11T05:54:22.573Z,22.1
2018-11-11T05:55:14.002Z,22.1
2018-11-11T05:56:04.063Z,22.1
2018-11-11T05:56:53.325Z,22.1
2018-11-11T05:57:43.675Z,22.1
2018-11-11T05:58:34.574Z,22.1
2018-11-11T05:59:23.028Z,22.1
2018-11-11T06:00:14.060Z,22.1
2018-11-11T06:01:03.457Z,22.1
2018-11-11T06:01:53.675Z,22.1
2018-11-11T06:02:43.339Z,22.1
2018-11-11T06:03:33.529Z,22.1
2018-11-11T06:04:23.949Z,22.1
2018-11-11T06:05:13.357Z,22.1
2018-11-11T06:06:04.522Z,22.1
2018-11-11T06:06:52.927Z,22.1
2018-11-11T06:07:44.007Z,22.1
2018-11-11T06:08:35.114Z,22.1
2018-11-11T06:09:25.015Z,22.1
2018-11-11T06:10:14.641Z,22.1
2018-11-11T06:11:04.825Z,22.1
2018-11-11T06:11:55.232Z,22.1
2018-11-11T06:12:44.677Z,22.1
2018-11-11T06:13:34.498Z,22.1
2018-11-11T06:14:25.334Z,22.1
2018-11-11T06:15:15.025Z,22.1
2018-11-11T06:16:04.024Z,22.1
2018-11-11T06:16:55.654Z,22.1
2018-11-11T06:17:45.602Z,22.1
2018-11-11T06:18:36.196Z,22.1
2018-11-11T06:19:25.219Z,22.1
2018-11-11T06:20:15.287Z,22.1
2018-11-11T06:21:05.369Z,22.1
2018-11-11T06:21:56.537Z,22
2018-11-11T06:22:45.518Z,22
2018-11-11T06:23:35.243Z,22
2018-11-11T06:24:24.961Z,22
2018-11-11T06:25:15.940Z,22
2018-11-11T06:26:06.521Z,22
2018-11-11T06:26:55.801Z,21.9
2018-11-11T06:27:45.750Z,21.9
2018-11-11T06:28:35.578Z,21.9
2018-11-11T06:29:25.947Z,21.9
2018-11-11T06:30:15.987Z,21.9
2018-11-11T06:31:05.902Z,21.9
2018-11-11T06:31:56.906Z,21.9
2018-11-11T06:32:45.870Z,21.9
2018-11-11T06:33:36.499Z,21.9
2018-11-11T06:34:26.403Z,21.9
2018-11-11T06:35:16.637Z,21.8
2018-11-11T06:36:05.915Z,21.9
2018-11-11T06:36:55.737Z,21.8
2018-11-11T06:37:45.725Z,21.8
2018-11-11T06:38:36.345Z,21.8
2018-11-11T06:39:26.118Z,21.8
2018-11-11T06:40:15.133Z,21.8
2018-11-11T06:41:05.703Z,21.8
2018-11-11T06:41:56.885Z,21.8
2018-11-11T06:42:46.675Z,21.8
2018-11-11T06:43:35.865Z,21.8
2018-11-11T06:44:26.249Z,21.8
2018-11-11T06:45:16.290Z,21.8
2018-11-11T06:46:06.652Z,21.8
2018-11-11T06:46:57.627Z,21.8
2018-11-11T06:47:46.457Z,21.7
2018-11-11T06:48:36.976Z,21.7
2018-11-11T06:49:25.996Z,21.7
2018-11-11T06:50:18.192Z,21.7
2018-11-11T06:51:07.782Z,21.7
2018-11-11T06:51:57.287Z,21.7
2018-11-11T06:52:47.882Z,21.7
2018-11-11T06:53:37.451Z,21.7
2018-11-11T06:54:27.506Z,21.6
2018-11-11T06:55:17.272Z,21.6
2018-11-11T06:56:07.507Z,21.6
2018-11-11T06:56:57.019Z,21.6
2018-11-11T06:57:47.503Z,22.9
2018-11-11T06:58:37.630Z,25.3
2018-11-11T06:59:26.996Z,25.8
2018-11-11T07:00:17.277Z,28.5
2018-11-11T07:01:08.207Z,30.1
2018-11-11T07:01:57.479Z,30.9
2018-11-11T07:02:48.083Z,30.3
2018-11-11T07:03:37.451Z,29
2018-11-11T07:04:28.709Z,28.2
2018-11-11T07:06:07.972Z,27.7
2018-11-11T07:06:59.328Z,27.6
2018-11-11T07:07:49.643Z,27.5
2018-11-11T07:08:39.788Z,27.4
2018-11-11T07:09:29.393Z,27.3
2018-11-11T07:10:19.431Z,27.2
2018-11-11T07:11:08.821Z,27.1
2018-11-11T07:11:59.018Z,27
2018-11-11T07:12:50.316Z,26.9
2018-11-11T07:13:38.781Z,26.8
2018-11-11T07:14:29.449Z,26.7
2018-11-11T07:15:18.721Z,26.4
2018-11-11T07:16:08.563Z,27.8
2018-11-11T07:16:59.793Z,28.5
2018-11-11T07:17:49.181Z,30.8
2018-11-11T07:18:39.403Z,32.2
2018-11-11T07:19:28.525Z,32.6
2018-11-11T07:20:19.721Z,32.3
2018-11-11T07:21:10.095Z,31.8
2018-11-11T07:22:00.700Z,31.6
2018-11-11T07:22:50.985Z,31.6
2018-11-11T07:23:39.669Z,31.8
2018-11-11T07:24:30.340Z,32.1
2018-11-11T07:25:20.200Z,32.3
2018-11-11T07:26:09.370Z,32.3
2018-11-11T07:27:00.230Z,32.3
2018-11-11T07:27:50.830Z,32.3
2018-11-11T07:28:40.053Z,32.4
2018-11-11T07:29:30.687Z,32.4
2018-11-11T07:30:20.352Z,32.6
2018-11-11T07:31:10.309Z,32.8
2018-11-11T07:32:00.075Z,32.9
2018-11-11T07:32:50.162Z,32.9
2018-11-11T07:33:40.820Z,33
2018-11-11T07:34:30.594Z,33.1
2018-11-11T07:35:20.325Z,33.3
2018-11-11T07:36:12.291Z,33.4
2018-11-11T07:37:00.937Z,33.5
2018-11-11T07:37:51.855Z,33.6
2018-11-11T07:38:41.017Z,33.8
2018-11-11T07:39:30.332Z,33.9
2018-11-11T07:40:20.872Z,34.1
2018-11-11T07:41:11.059Z,34.3
2018-11-11T07:42:02.139Z,34.5
2018-11-11T07:42:51.102Z,34.7
2018-11-11T07:43:41.574Z,34.9
2018-11-11T07:44:31.646Z,35.1
2018-11-11T07:45:21.339Z,35.3
2018-11-11T07:46:11.390Z,35.4
2018-11-11T07:47:01.554Z,35.6
2018-11-11T07:47:53.142Z,35.8
2018-11-11T07:48:41.701Z,35.9
2018-11-11T07:49:31.281Z,36.1
2018-11-11T07:50:22.451Z,36.3
2018-11-11T07:51:11.676Z,36.5
2018-11-11T07:52:02.629Z,36.7
2018-11-11T07:52:51.835Z,36.8
2018-11-11T07:53:41.897Z,37
2018-11-11T07:54:32.312Z,37.2
2018-11-11T07:55:22.643Z,37.4
2018-11-11T07:56:12.676Z,37.6
2018-11-11T07:57:01.590Z,37.8
2018-11-11T07:57:52.164Z,37.9
2018-11-11T07:58:42.302Z,38.1
2018-11-11T07:59:32.345Z,38.2
2018-11-11T08:00:22.391Z,38.4
2018-11-11T08:01:12.068Z,38.5
2018-11-11T08:02:02.646Z,38.7
2018-11-11T08:02:52.475Z,38.9
2018-11-11T08:03:42.368Z,39
2018-11-11T08:04:32.967Z,39.1
2018-11-11T08:05:21.685Z,39.3
2018-11-11T08:06:13.062Z,39.5
2018-11-11T08:07:03.153Z,39.7
2018-11-11T08:07:53.412Z,39.8
2018-11-11T08:08:42.855Z,40
2018-11-11T08:09:32.607Z,40.1
2018-11-11T08:10:23.348Z,40.3
2018-11-11T08:11:14.095Z,40.4
2018-11-11T08:12:02.960Z,40.6
2018-11-11T08:12:53.480Z,40.8
2018-11-11T08:13:43.572Z,40.9
2018-11-11T08:14:33.717Z,41.1
2018-11-11T08:15:22.692Z,41.3
2018-11-11T08:16:13.478Z,41.4
2018-11-11T08:17:03.707Z,41.6
2018-11-11T08:17:54.146Z,41.7
2018-11-11T08:18:43.155Z,41.9
2018-11-11T08:19:33.561Z,42.1
2018-11-11T08:20:24.582Z,42.2
2018-11-11T08:21:13.999Z,42.3
2018-11-11T08:22:04.274Z,42.5
2018-11-11T08:22:54.319Z,42.7
2018-11-11T08:23:43.992Z,42.8
2018-11-11T08:24:33.756Z,43
2018-11-11T08:25:24.877Z,43.1
2018-11-11T08:26:13.484Z,43.3
2018-11-11T08:27:03.357Z,43.4
2018-11-11T08:27:54.394Z,43.6
2018-11-11T08:28:44.089Z,43.8
2018-11-11T08:29:33.909Z,43.9
2018-11-11T08:30:24.349Z,44.1
2018-11-11T08:31:14.785Z,44.3
2018-11-11T08:32:05.729Z,44.4
2018-11-11T08:32:55.189Z,44.6
2018-11-11T08:33:44.504Z,44.7
2018-11-11T08:34:34.536Z,44.9
2018-11-11T08:35:24.793Z,45
2018-11-11T08:36:15.176Z,45.1
2018-11-11T08:37:05.491Z,45.3
2018-11-11T08:37:54.568Z,45.4
2018-11-11T08:38:45.925Z,45.6
2018-11-11T08:39:35.366Z,45.8
2018-11-11T08:40:25.795Z,45.9
2018-11-11T08:41:14.584Z,46.1
2018-11-11T08:42:05.308Z,46.3
2018-11-11T08:42:55.700Z,46.4
2018-11-11T08:43:45.698Z,46.6
2018-11-11T08:44:35.778Z,46.7
2018-11-11T08:45:26.073Z,46.8
2018-11-11T08:46:15.307Z,46.9
2018-11-11T08:47:05.362Z,47.1
2018-11-11T08:47:56.578Z,47.3
2018-11-11T08:48:46.080Z,47.4
2018-11-11T08:49:36.874Z,47.6
2018-11-11T08:50:25.613Z,47.7
2018-11-11T08:51:15.981Z,47.8
2018-11-11T08:52:06.584Z,47.9
2018-11-11T09:08:47.354Z,50.3
2018-11-11T09:09:36.524Z,50.6
2018-11-11T09:10:27.821Z,50.6
2018-11-11T09:11:18.253Z,50.8
2018-11-11T09:12:06.363Z,50.9
2018-11-11T09:12:56.882Z,51
2018-11-11T09:13:47.738Z,51.1
2018-11-11T09:14:37.414Z,51.2
2018-11-11T09:15:26.606Z,51.3
2018-11-11T09:16:17.939Z,51.4
2018-11-11T09:17:07.905Z,51.6
2018-11-11T09:17:57.506Z,51.6
2018-11-11T09:18:48.082Z,51.8
2018-11-11T09:19:37.628Z,51.9
2018-11-11T09:21:18.749Z,52.1
2018-11-11T09:22:07.848Z,52.1
2018-11-11T09:22:57.867Z,52.3
2018-11-11T09:24:37.798Z,52.4
2018-11-11T09:25:28.402Z,52.6
2018-11-11T09:26:17.970Z,52.6
2018-11-11T09:27:09.000Z,52.8
2018-11-11T09:27:58.523Z,52.9
2018-11-11T09:28:48.820Z,52.9
2018-11-11T09:29:39.927Z,52.9
2018-11-11T09:30:30.341Z,53.1
2018-11-11T09:31:19.299Z,53.1
2018-11-11T09:32:08.255Z,53.2
2018-11-11T09:32:58.251Z,53.3
2018-11-11T09:33:48.387Z,53.4
2018-11-11T09:34:38.970Z,53.4
2018-11-11T09:35:31.003Z,53.6
2018-11-11T09:36:18.942Z,53.6
2018-11-11T09:37:09.167Z,53.7
2018-11-11T09:37:59.304Z,53.8
2018-11-11T09:38:49.842Z,53.8
2018-11-11T09:39:39.707Z,53.9
2018-11-11T09:40:29.407Z,54
2018-11-11T09:41:19.820Z,54.1
2018-11-11T09:42:10.100Z,54.1
2018-11-11T09:42:59.172Z,54.3
2018-11-11T09:43:49.456Z,54.3
2018-11-11T09:44:39.295Z,54.4
2018-11-11T09:45:30.107Z,54.4
2018-11-11T09:46:20.694Z,54.5
2018-11-11T09:47:10.150Z,54.6
2018-11-11T09:48:01.409Z,54.7
2018-11-11T09:48:49.764Z,54.8
2018-11-11T09:49:39.847Z,54.8
2018-11-11T09:50:30.700Z,54.9
2018-11-11T09:51:19.565Z,55
2018-11-11T09:52:09.516Z,55
2018-11-11T09:52:59.811Z,55.1
2018-11-11T09:53:49.906Z,55.1
2018-11-11T09:54:40.228Z,55.2
2018-11-11T09:55:29.962Z,55.3
2018-11-11T09:56:21.145Z,55.3
2018-11-11T09:57:10.887Z,55.4
2018-11-11T09:58:00.184Z,55.4
2018-11-11T09:58:51.902Z,55.1
2018-11-11T09:59:42.446Z,55
2018-11-11T10:00:31.457Z,55
2018-11-11T10:01:20.129Z,55.1
2018-11-11T10:02:09.780Z,55.1
2018-11-11T10:03:01.414Z,55.2
2018-11-11T10:03:50.588Z,55.3
2018-11-11T10:04:40.920Z,55.4
2018-11-11T10:05:31.450Z,55.4
2018-11-11T10:06:21.568Z,55.4
2018-11-11T10:07:11.855Z,55.6
2018-11-11T10:08:00.792Z,55.6
2018-11-11T10:08:50.493Z,55.8
2018-11-11T10:09:40.739Z,55.8
2018-11-11T10:10:31.558Z,55.8
2018-11-11T10:11:21.715Z,55.9
2018-11-11T10:12:11.182Z,56
2018-11-11T10:13:00.617Z,56.1
2018-11-11T10:13:51.259Z,56.1
2018-11-11T10:14:41.185Z,56.2
2018-11-11T10:15:31.585Z,56.3
2018-11-11T10:16:22.044Z,56.4
2018-11-11T10:17:11.886Z,56.4
2018-11-11T10:18:02.443Z,56.5
2018-11-11T10:18:51.413Z,56.5
2018-11-11T10:19:41.944Z,56.6
2018-11-11T10:20:32.795Z,56.7
2018-11-11T10:21:22.714Z,56.8
2018-11-11T10:22:12.488Z,56.9
2018-11-11T10:23:01.843Z,56.9
2018-11-11T10:23:52.089Z,57
2018-11-11T10:24:41.721Z,57.1
2018-11-11T10:25:32.256Z,57.1
2018-11-11T10:26:23.278Z,57.2
2018-11-11T10:27:13.422Z,57.3
2018-11-11T10:28:02.133Z,57.3
2018-11-11T10:28:52.718Z,57.4
2018-11-11T10:29:42.750Z,57.4
2018-11-11T10:30:32.561Z,57.6
2018-11-11T10:31:22.293Z,57.6
2018-11-11T10:32:12.646Z,57.6
2018-11-11T10:33:03.214Z,57.7
2018-11-11T10:34:43.010Z,57.9
2018-11-11T10:35:33.917Z,57.9
2018-11-11T10:36:23.171Z,57.9
2018-11-11T10:37:12.427Z,58.1
2018-11-11T10:38:03.745Z,58.1
2018-11-11T10:38:52.820Z,58.1
2018-11-11T10:39:44.242Z,58.1
2018-11-11T10:40:34.387Z,58.3
2018-11-11T10:41:22.635Z,58.3
2018-11-11T10:42:12.946Z,58.4
2018-11-11T10:43:03.433Z,58.4
2018-11-11T10:43:53.790Z,58.5
2018-11-11T10:46:23.710Z,58.6
2018-11-11T10:47:14.417Z,58.7
2018-11-11T10:48:04.558Z,58.5
2018-11-11T10:48:54.615Z,58.4
2018-11-11T10:49:44.694Z,58.3
2018-11-11T10:50:33.682Z,58.3
2018-11-11T10:51:24.864Z,58.4
2018-11-11T10:52:14.662Z,58.4
2018-11-11T10:53:04.497Z,58.5
2018-11-11T10:54:45.644Z,58.6
2018-11-11T10:55:34.317Z,58.6
2018-11-11T10:56:23.995Z,58.7
2018-11-11T10:57:14.647Z,58.8
2018-11-11T10:58:04.969Z,58.9
2018-11-11T10:58:54.748Z,58.9
2018-11-11T10:59:44.626Z,58.9
2018-11-11T11:00:34.327Z,59
2018-11-11T11:01:24.581Z,59.1
2018-11-11T11:02:15.881Z,59.1
2018-11-11T11:03:05.384Z,59.2
2018-11-11T11:03:54.651Z,59.2
2018-11-11T11:04:44.973Z,59.3
2018-11-11T11:05:35.604Z,59.3
2018-11-11T11:06:25.888Z,59.3
2018-11-11T11:07:16.532Z,59.4
2018-11-11T11:08:05.715Z,59.4
2018-11-11T11:08:55.281Z,59.3
2018-11-11T11:09:45.289Z,59.3
2018-11-11T11:10:36.258Z,59.3
2018-11-11T11:11:25.946Z,59.4
2018-11-11T11:12:16.523Z,59.4
2018-11-11T11:13:06.866Z,59.5
2018-11-11T11:13:56.820Z,59.6
2018-11-11T11:14:46.760Z,59.6
2018-11-11T11:15:35.853Z,59.6
2018-11-11T11:16:25.852Z,59.6
2018-11-11T11:17:16.443Z,59.7
2018-11-11T11:18:06.291Z,59.8
2018-11-11T11:18:55.625Z,59.8
2018-11-11T11:19:47.160Z,59.8
2018-11-11T11:20:36.317Z,59.8
2018-11-11T11:21:26.418Z,59.9
2018-11-11T11:22:17.565Z,59.9
2018-11-11T11:23:08.147Z,59.9
2018-11-11T11:23:56.412Z,59.9
2018-11-11T11:24:46.342Z,60
2018-11-11T11:25:36.944Z,59.9
2018-11-11T11:26:27.062Z,60
2018-11-11T11:27:18.265Z,60
2018-11-11T11:28:06.955Z,60.1
2018-11-11T11:28:57.725Z,60.1
2018-11-11T11:29:46.995Z,60.1
2018-11-11T11:30:37.297Z,60.1
2018-11-11T11:31:28.210Z,60.1
2018-11-11T11:32:18.541Z,60.2
2018-11-11T11:33:07.460Z,60.2
2018-11-11T11:33:58.219Z,60.2
2018-11-11T11:34:47.900Z,60.2
2018-11-11T11:35:39.085Z,60.3
2018-11-11T11:36:28.079Z,60.3
2018-11-11T11:37:18.717Z,60.3
2018-11-11T11:38:08.491Z,60.3
2018-11-11T11:38:58.491Z,60.4
2018-11-11T11:39:48.132Z,60.4
2018-11-11T11:40:38.181Z,60.4
2018-11-11T11:41:28.936Z,60.4
2018-11-11T11:42:18.461Z,60.5
2018-11-11T11:43:07.937Z,60.5
2018-11-11T11:43:58.246Z,60.6
2018-11-11T11:44:47.759Z,60.6
2018-11-11T11:45:38.718Z,60.6
2018-11-11T11:46:28.256Z,60.7
2018-11-11T11:47:19.602Z,60.7
2018-11-11T11:48:09.184Z,60.7
2018-11-11T11:48:58.398Z,60.7
2018-11-11T11:49:48.151Z,60.7
2018-11-11T11:50:38.881Z,60.8
2018-11-11T11:51:28.637Z,60.8
2018-11-11T11:52:20.743Z,60.9
2018-11-11T11:53:10.251Z,60.9
2018-11-11T11:53:58.723Z,60.9
2018-11-11T11:54:49.401Z,60.9
2018-11-11T11:55:39.388Z,60.9
2018-11-11T11:56:29.501Z,60.9
2018-11-11T11:57:19.811Z,60.9
2018-11-11T11:58:08.617Z,60.9
2018-11-11T11:58:58.907Z,60.9
2018-11-11T11:59:49.738Z,61
2018-11-11T12:00:39.513Z,61.1
2018-11-11T12:01:29.893Z,61
2018-11-11T12:02:19.893Z,61.1
2018-11-11T12:03:09.133Z,61.1
2018-11-11T12:03:59.577Z,61.1